Time;durP1;ratioP1;P1;durP2;ratioP2;P2;SDS_P1;SDS_P2;PMS_P1;PMS_P2;Temp;Humidity;BMP_temperature;BMP_pressure;BME280_temperature;BME280_humidity;BME280_pressure;Samples;Min_cycle;Max_cycle;Signal;HPM_P1;HPM_P2
2023/01/20 00:01:10;;;;;;;3.35;1.10;;;;;;;;;;5097521;28;20027;-69
2023/01/20 00:03:37;;;;;;;4.72;1.30;;;;;;;;;;5109493;28;20035;-70
2023/01/20 00:06:03;;;;;;;4.45;1.10;;;;;;;;;;5112342;28;20023;-70
2023/01/20 00:08:29;;;;;;;6.45;1.15;;;;;;;;;;5111986;28;20084;-69
2023/01/20 00:10:55;;;;;;;3.25;1.27;;;;;;;;;;5112249;28;20418;-70
2023/01/20 00:13:21;;;;;;;4.97;1.80;;;;;;;;;;5093520;28;20057;-69
2023/01/20 00:15:47;;;;;;;4.47;1.30;;;;;;;;;;5112545;28;20027;-70
2023/01/20 00:18:13;;;;;;;3.40;1.10;;;;;;;;;;5112468;28;20031;-70
2023/01/20 00:20:39;;;;;;;5.55;1.52;;;;;;;;;;5111812;28;20190;-70
2023/01/20 00:23:05;;;;;;;5.30;1.45;;;;;;;;;;5111683;28;20039;-70
2023/01/20 00:25:30;;;;;;;6.47;2.00;;;;;;;;;;5111905;28;20015;-70
2023/01/20 00:27:56;;;;;;;6.20;2.13;;;;;;;;;;5112328;28;20396;-70
2023/01/20 00:30:22;;;;;;;7.22;1.88;;;;;;;;;;5094069;28;20539;-70
2023/01/20 00:32:47;;;;;;;4.90;1.50;;;;;;;;;;5111119;28;20059;-70
2023/01/20 00:35:13;;;;;;;6.22;1.20;;;;;;;;;;5092528;28;20027;-70
2023/01/20 00:37:41;;;;;;;4.00;1.20;;;;;;;;;;5110881;28;20404;-71
2023/01/20 00:40:08;;;;;;;3.50;1.17;;;;;;;;;;5110864;28;20024;-70
2023/01/20 00:42:33;;;;;;;4.47;1.60;;;;;;;;;;5086463;28;20114;-70
2023/01/20 00:44:59;;;;;;;2.95;0.90;;;;;;;;;;5112370;28;20575;-71
2023/01/20 00:47:25;;;;;;;4.68;1.23;;;;;;;;;;5112074;28;20084;-70
2023/01/20 00:49:50;;;;;;;2.97;1.10;;;;;;;;;;5112264;28;20510;-70
2023/01/20 00:52:17;;;;;;;2.95;1.17;;;;;;;;;;5111503;28;20031;-70
2023/01/20 00:54:44;;;;;;;4.45;1.17;;;;;;;;;;5112132;28;20535;-70
2023/01/20 00:57:10;;;;;;;4.80;1.27;;;;;;;;;;5111956;28;20077;-70
2023/01/20 00:59:35;;;;;;;6.75;1.30;;;;;;;;;;5112332;28;20415;-70
2023/01/20 01:02:01;;;;;;;7.25;1.58;;;;;;;;;;5111521;28;20046;-69
2023/01/20 01:04:27;;;;;;;5.75;1.15;;;;;;;;;;5111890;28;20020;-70
2023/01/20 01:06:53;;;;;;;2.35;0.80;;;;;;;;;;5111703;28;20424;-70
2023/01/20 01:09:20;;;;;;;4.65;1.10;;;;;;;;;;5112203;28;20023;-70
2023/01/20 01:11:47;;;;;;;5.70;1.40;;;;;;;;;;5111447;28;20114;-70
2023/01/20 01:14:13;;;;;;;3.75;1.10;;;;;;;;;;5111998;28;20077;-70
2023/01/20 01:16:39;;;;;;;6.63;2.00;;;;;;;;;;5111701;28;20123;-70
2023/01/20 01:19:04;;;;;;;4.90;1.75;;;;;;;;;;5111648;28;20055;-70
2023/01/20 01:21:30;;;;;;;3.47;1.20;;;;;;;;;;5094253;28;20040;-71
2023/01/20 01:23:56;;;;;;;6.35;1.27;;;;;;;;;;5111551;28;20024;-70
2023/01/20 01:26:22;;;;;;;6.75;1.23;;;;;;;;;;5111091;28;20046;-70
2023/01/20 01:28:49;;;;;;;9.23;1.80;;;;;;;;;;5111696;28;20263;-70
2023/01/20 01:31:17;;;;;;;5.57;1.23;;;;;;;;;;5111554;28;20038;-70
2023/01/20 01:33:43;;;;;;;4.78;1.20;;;;;;;;;;5102902;28;20122;-70
2023/01/20 01:36:14;;;;;;;5.90;1.58;;;;;;;;;;5106242;28;20438;-70
2023/01/20 01:38:40;;;;;;;4.72;1.25;;;;;;;;;;5110762;28;20096;-70
2023/01/20 01:41:06;;;;;;;3.45;1.38;;;;;;;;;;5110380;28;20461;-71
2023/01/20 01:43:34;;;;;;;5.65;1.58;;;;;;;;;;5111282;28;20445;-70
2023/01/20 01:46:01;;;;;;;6.03;1.40;;;;;;;;;;5108490;28;20108;-70
2023/01/20 01:48:32;;;;;;;3.70;1.23;;;;;;;;;;5109114;28;20040;-70
2023/01/20 01:51:10;;;;;;;3.63;1.20;;;;;;;;;;5109352;28;20042;-70
2023/01/20 01:53:42;;;;;;;2.92;1.00;;;;;;;;;;5114823;28;20528;-70
2023/01/20 01:56:09;;;;;;;6.57;1.40;;;;;;;;;;5115181;28;20039;-70
2023/01/20 01:58:38;;;;;;;4.43;1.20;;;;;;;;;;5115373;28;20031;-69
2023/01/20 02:01:04;;;;;;;3.83;1.70;;;;;;;;;;5115622;28;20032;-69
2023/01/20 02:03:47;;;;;;;5.10;2.20;;;;;;;;;;5114732;28;20593;-70
2023/01/20 02:06:14;;;;;;;5.97;1.90;;;;;;;;;;5115485;28;20058;-69
2023/01/20 02:08:41;;;;;;;4.82;1.73;;;;;;;;;;5113718;28;20164;-69
2023/01/20 02:11:06;;;;;;;5.43;2.60;;;;;;;;;;5114916;28;20028;-69
2023/01/20 02:13:33;;;;;;;6.35;1.73;;;;;;;;;;5114364;28;20030;-70
2023/01/20 02:16:08;;;;;;;4.68;1.50;;;;;;;;;;5112854;28;20062;-70
2023/01/20 02:18:42;;;;;;;5.00;1.48;;;;;;;;;;5114225;28;20042;-70
2023/01/20 02:21:45;;;;;;;6.63;1.60;;;;;;;;;;5111801;28;20040;-71
2023/01/20 02:24:29;;;;;;;6.25;1.67;;;;;;;;;;5101987;28;20028;-70
2023/01/20 02:27:09;;;;;;;;;;;;;;;;;;5112759;28;20035;-69
2023/01/20 02:30:23;;;;;;;3.63;1.58;;;;;;;;;;5105885;28;19969;-69
2023/01/20 02:33:16;;;;;;;6.32;1.45;;;;;;;;;;5097022;28;20098;-70
2023/01/20 02:35:47;;;;;;;6.25;1.27;;;;;;;;;;5102692;28;20028;-70
2023/01/20 02:38:32;;;;;;;6.55;1.17;;;;;;;;;;5110105;28;20395;-70
2023/01/20 02:41:16;;;;;;;1.58;0.75;;;;;;;;;;5101257;28;20039;-70
2023/01/20 02:44:07;;;;;;;3.70;1.08;;;;;;;;;;5101397;28;20042;-70
2023/01/20 02:46:39;;;;;;;1.23;0.70;;;;;;;;;;5105339;28;20153;-70
2023/01/20 02:49:35;;;;;;;5.10;1.02;;;;;;;;;;5107846;28;20028;-70
2023/01/20 02:52:09;;;;;;;2.63;0.82;;;;;;;;;;5100775;28;20043;-70
2023/01/20 02:54:36;;;;;;;;;;;;;;;;;;5115061;28;20035;-70
2023/01/20 02:57:08;;;;;;;2.22;1.08;;;;;;;;;;5100190;28;19952;-70
2023/01/20 02:59:40;;;;;;;3.90;1.73;;;;;;;;;;5110924;28;20039;-70
2023/01/20 03:02:10;;;;;;;4.60;1.88;;;;;;;;;;5102441;28;20036;-71
2023/01/20 03:04:59;;;;;;;4.18;1.52;;;;;;;;;;5075673;28;20036;-70
2023/01/20 03:07:28;;;;;;;1.95;1.20;;;;;;;;;;5111364;28;20048;-71
2023/01/20 03:10:00;;;;;;;3.13;1.15;;;;;;;;;;5109442;28;20069;-71
2023/01/20 03:12:34;;;;;;;3.28;1.10;;;;;;;;;;5113656;28;20046;-70
2023/01/20 03:14:59;;;;;;;3.45;1.60;;;;;;;;;;5106005;28;20058;-70
2023/01/20 03:17:25;;;;;;;3.08;1.90;;;;;;;;;;5104656;28;20437;-71
2023/01/20 03:19:51;;;;;;;4.88;2.42;;;;;;;;;;5098970;28;20031;-70
2023/01/20 03:22:17;;;;;;;3.33;1.40;;;;;;;;;;5087535;28;20496;-70
2023/01/20 03:24:45;;;;;;;2.42;1.10;;;;;;;;;;5114217;28;20038;-70
2023/01/20 03:27:10;;;;;;;2.70;1.23;;;;;;;;;;5105567;28;20085;-70
2023/01/20 03:29:36;;;;;;;4.50;1.35;;;;;;;;;;5105784;28;20268;-70
2023/01/20 03:32:06;;;;;;;8.20;1.70;;;;;;;;;;5113651;28;20032;-69
2023/01/20 03:34:34;;;;;;;6.55;1.02;;;;;;;;;;5103981;28;20034;-69
2023/01/20 03:37:02;;;;;;;2.40;1.17;;;;;;;;;;5113959;28;20024;-69
2023/01/20 03:39:28;;;;;;;2.53;1.00;;;;;;;;;;5105320;28;20038;-70
2023/01/20 03:42:04;;;;;;;4.65;1.15;;;;;;;;;;5099739;28;20405;-69
2023/01/20 03:44:30;;;;;;;5.05;1.80;;;;;;;;;;5093537;28;20135;-69
2023/01/20 03:47:37;;;;;;;5.88;2.70;;;;;;;;;;5107473;28;20472;-69
2023/01/20 03:50:08;;;;;;;3.90;1.73;;;;;;;;;;5094844;28;20114;-69
2023/01/20 03:52:42;;;;;;;1.80;0.90;;;;;;;;;;5112508;28;20032;-71
2023/01/20 03:55:14;;;;;;;3.30;1.67;;;;;;;;;;5105247;28;20122;-70
2023/01/20 03:57:56;;;;;;;1.75;1.00;;;;;;;;;;5104475;28;20035;-70
2023/01/20 04:00:24;;;;;;;2.92;1.20;;;;;;;;;;5104992;28;20114;-70
2023/01/20 04:02:53;;;;;;;2.60;1.20;;;;;;;;;;5113160;28;20030;-70
2023/01/20 04:05:20;;;;;;;3.35;1.27;;;;;;;;;;5103084;28;20040;-70
2023/01/20 04:07:46;;;;;;;2.42;1.02;;;;;;;;;;5104763;28;20496;-70
2023/01/20 04:10:14;;;;;;;3.00;1.23;;;;;;;;;;5113181;28;20046;-70
2023/01/20 04:12:40;;;;;;;5.03;1.20;;;;;;;;;;5104325;28;20030;-70
2023/01/20 04:15:07;;;;;;;3.15;1.50;;;;;;;;;;5105351;28;20027;-70
2023/01/20 04:17:32;;;;;;;3.15;1.33;;;;;;;;;;5099349;28;20027;-70
2023/01/20 04:20:05;;;;;;;2.10;1.17;;;;;;;;;;5098231;28;20040;-70
2023/01/20 04:22:39;;;;;;;2.97;1.00;;;;;;;;;;5110464;28;20073;-70
2023/01/20 04:25:29;;;;;;;3.17;0.82;;;;;;;;;;5107720;28;20036;-69
2023/01/20 04:27:55;;;;;;;4.10;1.02;;;;;;;;;;5097681;28;20052;-71
2023/01/20 04:30:20;;;;;;;3.95;0.98;;;;;;;;;;5109988;28;20239;-71
2023/01/20 04:32:46;;;;;;;2.25;1.20;;;;;;;;;;5104114;28;20040;-70
2023/01/20 04:35:14;;;;;;;2.58;1.33;;;;;;;;;;5104712;28;20047;-70
2023/01/20 04:37:40;;;;;;;3.55;2.00;;;;;;;;;;5109144;28;20032;-69
2023/01/20 04:40:06;;;;;;;5.57;1.70;;;;;;;;;;5099115;28;20085;-69
2023/01/20 04:42:32;;;;;;;3.90;1.60;;;;;;;;;;5101218;28;20036;-70
2023/01/20 04:44:58;;;;;;;4.70;1.85;;;;;;;;;;5112340;28;20026;-69
2023/01/20 04:47:24;;;;;;;5.18;1.73;;;;;;;;;;5112067;28;20488;-70
2023/01/20 04:49:49;;;;;;;5.32;2.58;;;;;;;;;;5112083;28;20401;-70
2023/01/20 04:52:16;;;;;;;4.60;2.13;;;;;;;;;;5103976;28;20073;-70
2023/01/20 04:54:41;;;;;;;4.93;2.55;;;;;;;;;;5103474;28;20106;-70
2023/01/20 04:57:07;;;;;;;6.93;2.63;;;;;;;;;;5104993;28;20115;-70
2023/01/20 04:59:33;;;;;;;4.45;2.42;;;;;;;;;;5102358;28;20020;-70
2023/01/20 05:01:58;;;;;;;5.90;3.85;;;;;;;;;;5109909;28;20048;-71
2023/01/20 05:04:24;;;;;;;5.97;3.00;;;;;;;;;;5102883;28;20046;-70
2023/01/20 05:06:50;;;;;;;7.25;2.50;;;;;;;;;;5098833;28;20036;-70
2023/01/20 05:09:16;;;;;;;5.93;2.63;;;;;;;;;;5095217;28;20348;-70
2023/01/20 05:11:43;;;;;;;6.78;2.10;;;;;;;;;;5082054;28;20035;-69
2023/01/20 05:14:10;;;;;;;5.18;1.50;;;;;;;;;;5107628;28;20476;-69
2023/01/20 05:16:36;;;;;;;2.58;1.35;;;;;;;;;;5110226;28;20271;-70
2023/01/20 05:19:02;;;;;;;3.90;1.75;;;;;;;;;;5106876;28;20473;-70
2023/01/20 05:21:27;;;;;;;5.63;2.33;;;;;;;;;;5101998;28;20036;-70
2023/01/20 05:23:53;;;;;;;6.50;2.60;;;;;;;;;;5088318;28;20020;-69
2023/01/20 05:26:21;;;;;;;5.25;2.67;;;;;;;;;;5108069;28;20399;-70
2023/01/20 05:28:47;;;;;;;5.72;2.20;;;;;;;;;;5113013;28;20476;-70
2023/01/20 05:31:13;;;;;;;5.72;3.53;;;;;;;;;;5114630;28;20042;-69
2023/01/20 05:33:39;;;;;;;5.57;3.90;;;;;;;;;;5096301;28;20028;-70
2023/01/20 05:36:06;;;;;;;4.82;2.75;;;;;;;;;;5097031;28;20545;-70
2023/01/20 05:38:31;;;;;;;4.95;3.00;;;;;;;;;;5113660;28;20023;-69
2023/01/20 05:41:02;;;;;;;5.55;2.55;;;;;;;;;;5115086;28;20480;-70
2023/01/20 05:43:28;;;;;;;5.40;2.28;;;;;;;;;;5114891;28;20045;-71
2023/01/20 05:45:54;;;;;;;7.10;2.38;;;;;;;;;;5071890;28;20103;-70
2023/01/20 05:48:20;;;;;;;3.47;1.40;;;;;;;;;;5105498;28;20043;-70
2023/01/20 05:50:46;;;;;;;6.82;1.95;;;;;;;;;;5105583;28;20028;-70
2023/01/20 05:53:13;;;;;;;4.90;2.60;;;;;;;;;;5114967;28;20027;-70
2023/01/20 05:55:40;;;;;;;5.05;2.08;;;;;;;;;;5111566;28;20098;-72
2023/01/20 05:58:07;;;;;;;5.78;2.35;;;;;;;;;;5097481;28;20036;-73
2023/01/20 06:00:33;;;;;;;7.43;3.72;;;;;;;;;;5112933;28;20548;-73
2023/01/20 06:02:59;;;;;;;6.07;3.00;;;;;;;;;;5108696;28;20083;-72
2023/01/20 06:05:25;;;;;;;4.80;2.85;;;;;;;;;;5091644;28;20039;-72
2023/01/20 06:07:52;;;;;;;5.05;2.58;;;;;;;;;;5110598;28;20121;-72
2023/01/20 06:10:18;;;;;;;4.00;2.60;;;;;;;;;;5110123;28;20087;-71
2023/01/20 06:12:50;;;;;;;3.03;2.35;;;;;;;;;;5095098;28;20027;-72
2023/01/20 06:15:16;;;;;;;4.57;1.90;;;;;;;;;;5113567;28;20031;-73
2023/01/20 06:17:41;;;;;;;4.85;1.85;;;;;;;;;;5106943;28;20019;-71
2023/01/20 06:20:09;;;;;;;3.67;2.40;;;;;;;;;;5111710;28;20036;-71
2023/01/20 06:22:35;;;;;;;4.07;2.30;;;;;;;;;;5110411;28;20031;-72
2023/01/20 06:25:01;;;;;;;7.75;2.50;;;;;;;;;;5107623;28;20364;-72
2023/01/20 06:27:26;;;;;;;6.65;2.30;;;;;;;;;;5103860;28;20403;-71
2023/01/20 06:29:52;;;;;;;3.88;1.63;;;;;;;;;;5106103;28;20044;-71
2023/01/20 06:32:18;;;;;;;4.88;2.70;;;;;;;;;;5094675;28;20072;-71
2023/01/20 06:34:44;;;;;;;3.95;2.17;;;;;;;;;;5105509;28;20030;-72
2023/01/20 06:37:09;;;;;;;3.80;1.80;;;;;;;;;;5105196;28;20047;-72
2023/01/20 06:39:36;;;;;;;4.72;2.47;;;;;;;;;;5112500;28;20069;-72
2023/01/20 06:42:06;;;;;;;4.40;2.30;;;;;;;;;;5113401;28;20384;-72
2023/01/20 06:44:35;;;;;;;8.90;4.70;;;;;;;;;;5115268;28;20489;-71
2023/01/20 06:47:02;;;;;;;8.60;4.47;;;;;;;;;;5101309;28;20020;-71
2023/01/20 06:49:28;;;;;;;6.93;4.55;;;;;;;;;;5093677;28;20089;-71
2023/01/20 06:51:54;;;;;;;13.02;6.82;;;;;;;;;;5099269;28;20076;-71
2023/01/20 06:54:20;;;;;;;8.80;4.63;;;;;;;;;;5110273;28;20032;-72
2023/01/20 06:56:45;;;;;;;7.30;2.70;;;;;;;;;;5113321;28;20028;-71
2023/01/20 06:59:12;;;;;;;7.25;3.30;;;;;;;;;;5113453;28;20035;-73
2023/01/20 07:01:39;;;;;;;5.32;2.90;;;;;;;;;;5104394;28;20531;-73
2023/01/20 07:04:05;;;;;;;9.60;5.05;;;;;;;;;;5094854;28;20042;-72
2023/01/20 07:06:39;;;;;;;4.57;2.40;;;;;;;;;;5096647;28;20385;-73
2023/01/20 07:09:08;;;;;;;4.07;1.75;;;;;;;;;;5103223;28;20031;-72
2023/01/20 07:11:34;;;;;;;4.95;1.45;;;;;;;;;;5112736;28;20032;-72
2023/01/20 07:14:02;;;;;;;4.25;1.20;;;;;;;;;;5099074;28;20038;-72
2023/01/20 07:16:27;;;;;;;3.35;1.45;;;;;;;;;;5111217;28;20102;-72
2023/01/20 07:18:53;;;;;;;2.50;1.50;;;;;;;;;;5101544;28;20119;-72
2023/01/20 07:21:19;;;;;;;5.32;2.10;;;;;;;;;;5113080;28;20020;-72
2023/01/20 07:23:45;;;;;;;2.75;1.55;;;;;;;;;;5103059;28;20115;-72
2023/01/20 07:26:17;;;;;;;4.05;1.40;;;;;;;;;;5111699;28;20059;-71
2023/01/20 07:28:43;;;;;;;2.58;1.20;;;;;;;;;;5103939;28;20126;-70
2023/01/20 07:31:10;;;;;;;3.58;1.25;;;;;;;;;;5087133;28;20062;-73
2023/01/20 07:33:36;;;;;;;3.28;1.20;;;;;;;;;;5111944;28;20127;-72
2023/01/20 07:36:03;;;;;;;9.23;1.60;;;;;;;;;;5088574;28;20026;-72
2023/01/20 07:38:29;;;;;;;2.47;1.50;;;;;;;;;;5096298;28;20036;-71
2023/01/20 07:40:59;;;;;;;3.75;1.40;;;;;;;;;;5092549;28;20113;-71
2023/01/20 07:43:25;;;;;;;2.78;1.60;;;;;;;;;;5092575;28;20130;-72
2023/01/20 07:45:57;;;;;;;7.03;1.75;;;;;;;;;;5103415;28;20103;-71
2023/01/20 07:48:24;;;;;;;6.43;1.63;;;;;;;;;;5103081;28;20035;-72
2023/01/20 07:51:01;;;;;;;9.18;1.70;;;;;;;;;;5103694;28;20032;-71
2023/01/20 07:53:28;;;;;;;4.68;1.65;;;;;;;;;;5110983;28;20035;-72
2023/01/20 07:55:54;;;;;;;15.35;2.33;;;;;;;;;;5105769;28;20102;-71
2023/01/20 07:58:20;;;;;;;12.98;2.20;;;;;;;;;;5103735;28;20544;-72
2023/01/20 08:00:47;;;;;;;7.72;1.42;;;;;;;;;;5104375;28;20171;-72
2023/01/20 08:03:15;;;;;;;4.40;1.10;;;;;;;;;;5104010;28;20088;-74
2023/01/20 08:05:41;;;;;;;2.28;1.15;;;;;;;;;;5090049;28;20035;-73
2023/01/20 08:08:07;;;;;;;15.32;2.05;;;;;;;;;;5107122;28;20031;-71
2023/01/20 08:10:33;;;;;;;28.50;3.90;;;;;;;;;;5102592;28;20027;-72
2023/01/20 08:12:58;;;;;;;42.35;4.65;;;;;;;;;;5087367;28;20070;-73
2023/01/20 08:15:24;;;;;;;32.05;3.75;;;;;;;;;;5110424;28;20015;-72
2023/01/20 08:17:54;;;;;;;48.83;5.70;;;;;;;;;;5103990;28;20100;-72
2023/01/20 08:20:20;;;;;;;21.58;3.42;;;;;;;;;;5086984;28;20020;-72
2023/01/20 08:22:46;;;;;;;12.27;2.65;;;;;;;;;;5111590;28;20430;-73
2023/01/20 08:25:11;;;;;;;13.75;2.47;;;;;;;;;;5088857;28;20099;-72
2023/01/20 08:27:37;;;;;;;29.52;3.22;;;;;;;;;;5111284;28;20488;-72
2023/01/20 08:30:03;;;;;;;12.13;2.10;;;;;;;;;;5101124;28;20065;-72
2023/01/20 08:32:29;;;;;;;6.32;1.70;;;;;;;;;;5092589;28;20093;-72
2023/01/20 08:34:55;;;;;;;7.05;1.88;;;;;;;;;;5103353;28;20472;-72
2023/01/20 08:37:21;;;;;;;11.25;2.38;;;;;;;;;;5102254;28;20406;-73
2023/01/20 08:39:47;;;;;;;10.82;1.85;;;;;;;;;;5099121;28;20020;-71
2023/01/20 08:42:13;;;;;;;15.98;2.10;;;;;;;;;;5107524;28;20035;-73
2023/01/20 08:44:40;;;;;;;22.67;3.08;;;;;;;;;;5110711;28;20360;-71
2023/01/20 08:47:06;;;;;;;11.77;1.50;;;;;;;;;;5097295;28;20031;-72
2023/01/20 08:49:32;;;;;;;9.45;2.22;;;;;;;;;;5084294;28;20016;-71
2023/01/20 08:51:58;;;;;;;78.40;7.65;;;;;;;;;;5086674;28;20100;-70
2023/01/20 08:54:24;;;;;;;29.60;3.58;;;;;;;;;;5109450;28;20024;-71
2023/01/20 08:56:52;;;;;;;31.10;3.63;;;;;;;;;;5103046;28;20035;-69
2023/01/20 08:59:18;;;;;;;7.85;1.92;;;;;;;;;;5109954;28;20024;-71
2023/01/20 09:01:44;;;;;;;22.58;3.03;;;;;;;;;;5102053;28;20169;-70
2023/01/20 09:04:10;;;;;;;10.05;1.58;;;;;;;;;;5103183;28;20106;-69
2023/01/20 09:06:41;;;;;;;17.45;2.30;;;;;;;;;;5101666;28;20454;-70
2023/01/20 09:09:06;;;;;;;8.18;1.38;;;;;;;;;;5110732;28;20035;-71
2023/01/20 09:11:32;;;;;;;7.68;1.67;;;;;;;;;;5101700;28;20016;-70
2023/01/20 09:13:58;;;;;;;17.77;2.47;;;;;;;;;;5110913;28;20043;-72
2023/01/20 09:16:24;;;;;;;20.08;3.13;;;;;;;;;;5101519;28;20047;-70
2023/01/20 09:18:49;;;;;;;11.63;4.03;;;;;;;;;;5103323;28;20446;-70
2023/01/20 09:21:15;;;;;;;5.47;1.60;;;;;;;;;;5110762;28;20051;-71
2023/01/20 09:23:42;;;;;;;5.00;1.50;;;;;;;;;;5102021;28;20385;-71
2023/01/20 09:26:08;;;;;;;15.43;4.50;;;;;;;;;;5111037;28;20028;-70
2023/01/20 09:28:35;;;;;;;6.50;1.55;;;;;;;;;;5110412;28;20028;-70
2023/01/20 09:31:04;;;;;;;10.23;2.95;;;;;;;;;;5110393;28;20047;-70
2023/01/20 09:33:34;;;;;;;10.27;2.80;;;;;;;;;;5110928;28;20498;-70
2023/01/20 09:36:01;;;;;;;16.77;3.22;;;;;;;;;;5092650;28;20046;-70
2023/01/20 09:44:34;;;;;;;6.72;1.60;;;;;;;;;;5110924;28;20068;-71
2023/01/20 09:47:29;;;;;;;8.30;2.03;;;;;;;;;;5092088;28;20112;-70
2023/01/20 09:53:34;;;;;;;30.35;3.30;;;;;;;;;;5110165;28;20491;-70
2023/01/20 09:56:06;;;;;;;6.05;1.77;;;;;;;;;;5088384;28;20079;-69
2023/01/20 09:58:56;;;;;;;16.10;2.20;;;;;;;;;;5091816;28;20084;-70
2023/01/20 10:01:34;;;;;;;10.68;1.58;;;;;;;;;;5110587;28;20046;-70
2023/01/20 10:04:10;;;;;;;20.23;3.10;;;;;;;;;;5092342;28;20114;-70
2023/01/20 10:06:49;;;;;;;9.35;2.50;;;;;;;;;;5110796;28;20028;-69
2023/01/20 10:09:52;;;;;;;9.57;1.95;;;;;;;;;;5110607;28;20035;-71
2023/01/20 10:12:37;;;;;;;11.73;2.58;;;;;;;;;;5103376;28;20055;-69
2023/01/20 10:15:08;;;;;;;8.07;1.75;;;;;;;;;;5107083;28;20400;-70
2023/01/20 10:18:00;;;;;;;17.77;3.38;;;;;;;;;;5112068;28;20048;-70
2023/01/20 10:20:41;;;;;;;8.48;3.47;;;;;;;;;;5079687;28;20051;-71
2023/01/20 10:23:25;;;;;;;11.35;3.47;;;;;;;;;;5072687;28;20082;-70
2023/01/20 10:26:03;;;;;;;6.43;1.83;;;;;;;;;;5071950;28;20059;-70
2023/01/20 10:28:36;;;;;;;12.10;1.85;;;;;;;;;;5078899;28;20521;-70
2023/01/20 10:31:03;;;;;;;6.53;1.80;;;;;;;;;;5059564;28;20095;-71
2023/01/20 10:33:44;;;;;;;3.75;1.60;;;;;;;;;;5072148;28;20055;-70
2023/01/20 10:36:25;;;;;;;3.47;1.70;;;;;;;;;;5073667;28;20487;-71
2023/01/20 10:39:03;;;;;;;14.77;5.95;;;;;;;;;;5090482;28;20386;-69
2023/01/20 10:41:54;;;;;;;19.30;5.78;;;;;;;;;;5090744;28;20237;-72
2023/01/20 10:44:23;;;;;;;9.10;3.80;;;;;;;;;;5090541;28;20157;-70
2023/01/20 10:47:05;;;;;;;8.00;3.70;;;;;;;;;;5089887;28;20425;-70
2023/01/20 10:49:44;;;;;;;9.27;3.42;;;;;;;;;;5090341;28;20032;-71
2023/01/20 10:52:18;;;;;;;21.33;9.20;;;;;;;;;;5089271;28;20114;-71
2023/01/20 10:55:19;;;;;;;16.52;6.30;;;;;;;;;;5089467;28;20250;-70
2023/01/20 10:57:56;;;;;;;10.82;3.75;;;;;;;;;;5103144;28;20175;-70
2023/01/20 11:00:28;;;;;;;4.78;2.22;;;;;;;;;;5110871;28;20477;-71
2023/01/20 11:02:59;;;;;;;5.47;2.72;;;;;;;;;;5113875;28;20128;-70
2023/01/20 11:05:33;;;;;;;7.18;2.58;;;;;;;;;;5112763;28;20111;-70
2023/01/20 11:07:59;;;;;;;13.07;3.30;;;;;;;;;;5111328;28;20097;-70
2023/01/20 11:10:27;;;;;;;6.38;2.30;;;;;;;;;;5114142;28;20128;-69
2023/01/20 11:12:59;;;;;;;6.95;2.53;;;;;;;;;;5113637;27;20135;-70
2023/01/20 11:15:29;;;;;;;14.32;3.47;;;;;;;;;;5114069;28;20031;-71
2023/01/20 11:18:13;;;;;;;4.45;1.75;;;;;;;;;;5113921;28;20030;-70
2023/01/20 11:20:46;;;;;;;3.85;1.75;;;;;;;;;;5113665;28;20047;-70
2023/01/20 11:23:22;;;;;;;9.85;2.33;;;;;;;;;;5113220;28;20035;-70
2023/01/20 11:25:57;;;;;;;4.13;2.20;;;;;;;;;;5111353;28;20035;-71
2023/01/20 11:28:24;;;;;;;5.20;2.47;;;;;;;;;;5108717;28;20047;-70
2023/01/20 11:30:52;;;;;;;7.55;2.47;;;;;;;;;;5101597;28;20487;-70
2023/01/20 11:33:23;;;;;;;4.03;1.98;;;;;;;;;;5097239;28;20027;-70
2023/01/20 11:36:16;;;;;;;7.97;3.67;;;;;;;;;;5108784;28;20036;-70
2023/01/20 11:38:48;;;;;;;9.73;3.53;;;;;;;;;;5104861;28;20043;-70
2023/01/20 11:41:25;;;;;;;10.25;4.57;;;;;;;;;;5113097;28;20181;-70
2023/01/20 11:43:54;;;;;;;9.13;3.13;;;;;;;;;;5087497;28;20068;-70
2023/01/20 11:46:26;;;;;;;11.30;3.85;;;;;;;;;;5104038;28;20027;-70
2023/01/20 11:49:15;;;;;;;7.72;3.13;;;;;;;;;;5107904;28;20028;-71
2023/01/20 11:51:49;;;;;;;5.13;1.83;;;;;;;;;;5103834;28;20384;-70
2023/01/20 11:54:19;;;;;;;6.85;2.58;;;;;;;;;;5104345;28;20039;-71
2023/01/20 11:56:49;;;;;;;13.57;3.20;;;;;;;;;;5100985;28;20042;-70
2023/01/20 11:59:30;;;;;;;13.15;3.28;;;;;;;;;;5109247;28;20036;-70
2023/01/20 12:02:07;;;;;;;14.60;3.28;;;;;;;;;;5092791;28;20032;-71
2023/01/20 12:04:40;;;;;;;12.73;4.93;;;;;;;;;;5104934;28;20039;-70
2023/01/20 12:07:08;;;;;;;11.20;3.20;;;;;;;;;;5109262;28;20043;-72
2023/01/20 12:09:42;;;;;;;13.35;1.90;;;;;;;;;;5111537;28;20484;-71
2023/01/20 12:12:11;;;;;;;7.35;2.28;;;;;;;;;;5111832;28;20076;-70
2023/01/20 12:14:42;;;;;;;4.95;1.80;;;;;;;;;;5111552;28;20030;-70
2023/01/20 12:17:20;;;;;;;7.07;2.28;;;;;;;;;;5111635;28;20032;-71
2023/01/20 12:20:02;;;;;;;10.80;3.25;;;;;;;;;;5110654;28;20043;-72
2023/01/20 12:22:36;;;;;;;7.55;2.10;;;;;;;;;;5102940;28;20040;-71
2023/01/20 12:25:16;;;;;;;11.02;2.90;;;;;;;;;;5110826;28;20496;-71
2023/01/20 12:27:53;;;;;;;15.60;1.48;;;;;;;;;;5110030;28;20081;-72
2023/01/20 12:30:41;;;;;;;14.63;1.67;;;;;;;;;;5111128;28;20091;-70
2023/01/20 12:33:19;;;;;;;4.97;2.45;;;;;;;;;;5101492;28;20720;-71
2023/01/20 12:36:06;;;;;;;4.53;1.98;;;;;;;;;;5099068;28;20027;-72
2023/01/20 12:41:57;;;;;;;6.63;2.30;;;;;;;;;;5025002;28;20065;-71
2023/01/20 12:44:50;;;;;;;13.93;2.65;;;;;;;;;;5039642;28;20680;-72
2023/01/20 12:47:37;;;;;;;6.00;2.40;;;;;;;;;;5032972;28;20034;-72
2023/01/20 12:50:24;;;;;;;6.97;1.77;;;;;;;;;;5009340;28;20113;-72
2023/01/20 12:53:14;;;;;;;7.00;1.55;;;;;;;;;;5011284;28;20083;-71
2023/01/20 12:56:17;;;;;;;9.35;2.22;;;;;;;;;;5011612;28;20069;-72
2023/01/20 12:58:59;;;;;;;10.88;2.55;;;;;;;;;;5012447;28;20042;-72
2023/01/20 13:01:33;;;;;;;4.55;1.83;;;;;;;;;;5011675;28;20483;-72
2023/01/20 13:04:29;;;;;;;17.77;2.88;;;;;;;;;;5011585;28;20111;-71
2023/01/20 13:07:20;;;;;;;3.60;1.30;;;;;;;;;;5011586;28;20087;-70
2023/01/20 13:09:56;;;;;;;4.72;1.80;;;;;;;;;;4975940;28;20054;-71
2023/01/20 13:13:09;;;;;;;5.32;2.10;;;;;;;;;;4973017;28;20039;-72
2023/01/20 13:16:02;;;;;;;4.35;2.05;;;;;;;;;;4930433;29;20055;-73
2023/01/20 13:18:33;;;;;;;6.90;2.10;;;;;;;;;;4943733;29;20115;-71
2023/01/20 13:20:59;;;;;;;5.78;2.47;;;;;;;;;;4989291;28;20046;-71
2023/01/20 13:23:33;;;;;;;4.80;2.30;;;;;;;;;;5008597;28;20030;-73
2023/01/20 13:26:00;;;;;;;5.28;2.17;;;;;;;;;;4992490;28;20526;-72
2023/01/20 13:28:28;;;;;;;9.57;2.90;;;;;;;;;;5008588;28;20100;-72
2023/01/20 13:30:56;;;;;;;7.97;2.70;;;;;;;;;;5008604;28;20058;-72
2023/01/20 13:33:41;;;;;;;9.38;3.35;;;;;;;;;;5009063;28;20036;-73
2023/01/20 13:36:19;;;;;;;6.63;2.60;;;;;;;;;;5009149;28;20042;-72
2023/01/20 13:38:47;;;;;;;7.03;3.15;;;;;;;;;;5008286;28;20153;-72
2023/01/20 13:41:46;;;;;;;5.80;2.45;;;;;;;;;;5008508;28;20042;-71
2023/01/20 13:44:44;;;;;;;6.00;2.08;;;;;;;;;;5008730;28;20038;-72
2023/01/20 13:47:10;;;;;;;7.90;2.10;;;;;;;;;;4974779;28;20125;-72
2023/01/20 13:49:53;;;;;;;12.65;3.70;;;;;;;;;;4991951;28;20165;-71
2023/01/20 13:52:51;;;;;;;5.78;2.00;;;;;;;;;;4992330;28;20208;-71
2023/01/20 13:55:49;;;;;;;7.47;2.80;;;;;;;;;;4934768;29;20059;-72
2023/01/20 13:58:21;;;;;;;5.47;2.20;;;;;;;;;;4933766;29;20039;-72
2023/01/20 14:00:51;;;;;;;6.35;1.77;;;;;;;;;;4934985;29;20031;-72
2023/01/20 14:03:37;;;;;;;3.25;1.67;;;;;;;;;;4935502;29;20543;-72
2023/01/20 14:06:12;;;;;;;4.75;1.95;;;;;;;;;;4923880;29;20036;-72
2023/01/20 14:08:44;;;;;;;4.13;2.35;;;;;;;;;;4919618;29;20425;-73
2023/01/20 14:11:10;;;;;;;3.15;1.90;;;;;;;;;;4929989;29;20051;-73
2023/01/20 14:13:36;;;;;;;4.88;1.88;;;;;;;;;;4935273;29;20032;-73
2023/01/20 14:16:02;;;;;;;3.60;2.22;;;;;;;;;;4922980;29;20052;-72
2023/01/20 14:18:29;;;;;;;6.18;2.40;;;;;;;;;;4915809;29;20083;-71
2023/01/20 14:21:22;;;;;;;7.78;2.58;;;;;;;;;;4915899;29;20120;-72
2023/01/20 14:23:49;;;;;;;2.95;1.30;;;;;;;;;;4915495;29;20461;-72
2023/01/20 14:26:26;;;;;;;4.35;2.10;;;;;;;;;;4920109;29;20151;-73
2023/01/20 14:28:57;;;;;;;4.82;2.30;;;;;;;;;;4921352;29;20150;-73
2023/01/20 14:31:33;;;;;;;3.20;1.90;;;;;;;;;;4965727;28;20053;-73
2023/01/20 14:34:02;;;;;;;5.20;2.38;;;;;;;;;;5014269;28;20095;-72
2023/01/20 14:36:31;;;;;;;3.10;1.70;;;;;;;;;;5013590;28;20029;-73
2023/01/20 14:39:00;;;;;;;6.47;1.50;;;;;;;;;;5014105;28;20042;-73
2023/01/20 14:41:31;;;;;;;3.88;1.90;;;;;;;;;;5014676;28;20080;-73
2023/01/20 14:43:58;;;;;;;3.67;1.58;;;;;;;;;;5013651;28;20045;-73
2023/01/20 14:46:26;;;;;;;6.80;2.78;;;;;;;;;;5014051;28;20037;-73
2023/01/20 14:48:54;;;;;;;3.63;2.15;;;;;;;;;;5013592;28;20030;-73
2023/01/20 14:51:21;;;;;;;3.00;2.00;;;;;;;;;;5014001;28;20040;-73
2023/01/20 14:54:25;;;;;;;5.63;2.45;;;;;;;;;;5014125;28;20041;-73
2023/01/20 14:56:51;;;;;;;4.72;2.25;;;;;;;;;;4995719;28;20046;-75
2023/01/20 14:59:19;;;;;;;5.05;2.38;;;;;;;;;;5013068;28;20238;-72
2023/01/20 15:02:01;;;;;;;10.02;2.70;;;;;;;;;;5018561;28;20037;-73
2023/01/20 15:04:36;;;;;;;4.00;2.28;;;;;;;;;;5015577;28;20022;-74
2023/01/20 15:07:02;;;;;;;5.22;2.78;;;;;;;;;;5024839;28;20045;-72
2023/01/20 15:09:31;;;;;;;7.50;2.35;;;;;;;;;;5033482;28;20022;-72
2023/01/20 15:12:34;;;;;;;8.57;2.45;;;;;;;;;;5033014;28;20029;-73
2023/01/20 15:15:10;;;;;;;8.30;2.88;;;;;;;;;;5031230;28;20075;-71
2023/01/20 15:17:36;;;;;;;9.73;2.97;;;;;;;;;;5033217;28;20065;-71
2023/01/20 15:20:01;;;;;;;7.03;2.72;;;;;;;;;;5032703;28;20067;-72